首页
METAR-TAF:

METAR-TAF

机场 :

阿拉木圖, 哈萨克斯坦

阿拉木图国际机场

纬度: 43-14N, 经度: 076-56E, 海拔: 847米

当前天气观测

该预报发布于22分钟前的03:00 UTC
风速2节,风向多变
温度 -12°C
湿度 92%
气压 1025 hPa
能見度: 0600
散云层高于10000英尺
多云层高于20000英尺
冻雾

METAR: UAAA 200300Z VRB01MPS 0600 R23R/0800N R23L/0650N FZFG SCT100 BKN200 M12/M13 Q1025 R23R/91//50 R23L/91//42 NOSIG

时间: 09:22 (03:22 UTC)

预报

该预报发布于4小时和22分钟前的23:00 UTC
预报有效从20日的 00点(UTC)到 20日的 24点(UTC)
风速10节,风向东南
能見度: 1000
多云层高于1000英尺
多云层高于10000英尺
轻雾
短暂存在
从 20日的 00点(UTC)到 20日的 06点(UTC)
能見度: 0200
层高于200英尺
冻雾
成为
从 20日的 06点(UTC)到 20日的 07点(UTC)
风速10节,风向北转东北
能見度: 2000
轻雾, 烟
短暂存在
从 20日的 06点(UTC)到 20日的 12点(UTC)
能見度: 1200
短暂存在
从 20日的 12点(UTC)到 20日的 24点(UTC)
能見度: 0300
散云层高于300英尺
多云层高于1000英尺
冻雾

TAF: UAAA 192300Z 2000/2024 14005MPS 1000 BR BKN010 BKN100 TXM04/2009Z TNM13/2001Z TEMPO 2000/2006 0200 FZFG VV002 BECMG 2006/2007 03005MPS 2000 BR FU TEMPO 2006/2012 1200 TEMPO 2012/2024 0300 FZFG SCT003 BKN010

超过4000个机场的气象观测和天气预报(METAR&TAF报告)。

可查询的气象台以黄色和红色小点在地图上表示。

将鼠标移到小点上方,可查看气象台名称。

然后点击查看天气观测和预报。

如需切换地图:点击带黑十字的绿色按钮放大地图;点击带横线的绿色按钮缩小地图;或者点击绿色箭头查看邻近地区的地图。


METAR-TAF: